createdAt,value
2023-05-29T00:01:44.793Z,11.05
2023-05-29T00:04:13.339Z,11.07
2023-05-29T00:06:40.325Z,10.95
2023-05-29T00:09:07.283Z,10.95
2023-05-29T00:11:34.675Z,10.88
2023-05-29T00:14:01.460Z,10.80
2023-05-29T00:16:28.230Z,10.82
2023-05-29T00:18:54.987Z,10.74
2023-05-29T00:21:21.701Z,10.65
2023-05-29T00:23:48.754Z,10.64
2023-05-29T00:26:18.017Z,10.65
2023-05-29T00:28:50.522Z,10.63
2023-05-29T00:31:17.336Z,10.66
2023-05-29T00:33:44.124Z,10.57
2023-05-29T00:36:11.634Z,10.47
2023-05-29T00:38:38.494Z,10.50
2023-05-29T00:41:05.880Z,10.56
2023-05-29T00:43:32.648Z,10.60
2023-05-29T00:46:02.737Z,10.45
2023-05-29T00:48:29.554Z,10.35
2023-05-29T00:50:56.555Z,10.41
2023-05-29T00:53:24.364Z,10.41
2023-05-29T00:55:51.941Z,10.41
2023-05-29T00:58:18.821Z,10.38
2023-05-29T01:00:45.965Z,10.26
2023-05-29T01:03:18.214Z,10.36
2023-05-29T01:05:45.196Z,10.24
2023-05-29T01:08:12.043Z,10.29
2023-05-29T01:10:38.936Z,10.29
2023-05-29T01:13:19.113Z,10.32
2023-05-29T01:15:54.570Z,10.40
2023-05-29T01:19:04.321Z,10.34
2023-05-29T01:22:02.725Z,10.23
2023-05-29T01:24:44.432Z,10.16
2023-05-29T01:27:12.777Z,10.13
2023-05-29T01:29:41.831Z,10.09
2023-05-29T01:32:09.076Z,10.05
2023-05-29T01:34:35.971Z,10.00
2023-05-29T01:37:03.027Z,10.02
2023-05-29T01:39:31.258Z,9.98
2023-05-29T01:42:00.897Z,10.09
2023-05-29T01:44:29.997Z,10.06
2023-05-29T01:46:57.729Z,10.03
2023-05-29T01:49:26.406Z,9.99
2023-05-29T01:51:53.249Z,9.98
2023-05-29T01:54:20.363Z,9.96
2023-05-29T01:56:48.059Z,9.91
2023-05-29T01:59:15.886Z,9.95
2023-05-29T02:01:42.900Z,9.91
2023-05-29T02:04:09.757Z,9.82
2023-05-29T02:06:36.609Z,9.87
2023-05-29T02:09:04.138Z,9.80
2023-05-29T02:11:31.125Z,9.77
2023-05-29T02:13:58.283Z,9.82
2023-05-29T02:16:28.986Z,9.80
2023-05-29T02:18:56.333Z,9.86
2023-05-29T02:21:23.081Z,9.80
2023-05-29T02:23:49.867Z,9.76
2023-05-29T02:26:17.459Z,9.72
2023-05-29T02:28:44.211Z,9.71
2023-05-29T02:31:11.514Z,9.74
2023-05-29T02:33:38.219Z,9.70
2023-05-29T02:36:05.175Z,9.62
2023-05-29T02:38:31.953Z,9.61
2023-05-29T02:41:01.479Z,9.57
2023-05-29T02:43:28.269Z,9.46
2023-05-29T02:45:55.375Z,9.47
2023-05-29T02:48:30.272Z,9.36
2023-05-29T02:50:57.024Z,9.39
2023-05-29T02:53:24.160Z,9.37
2023-05-29T02:55:52.338Z,9.34
2023-05-29T02:58:19.232Z,9.33
2023-05-29T03:00:48.803Z,9.33
2023-05-29T03:03:15.955Z,9.41
2023-05-29T03:05:42.701Z,9.46
2023-05-29T03:08:09.456Z,9.40
2023-05-29T03:10:37.542Z,9.42
2023-05-29T03:13:04.752Z,9.50
2023-05-29T03:15:31.552Z,9.41
2023-05-29T03:17:58.285Z,9.32
2023-05-29T03:20:29.317Z,9.32
2023-05-29T03:22:58.601Z,9.34
2023-05-29T03:25:25.374Z,9.33
2023-05-29T03:27:52.198Z,9.34
2023-05-29T03:30:21.644Z,9.36
2023-05-29T03:32:49.798Z,9.39
2023-05-29T03:35:17.134Z,9.37
2023-05-29T03:37:44.871Z,9.28
2023-05-29T03:40:12.368Z,9.36
2023-05-29T03:42:39.568Z,9.30
2023-05-29T03:45:06.898Z,9.28
2023-05-29T03:47:35.809Z,9.34
2023-05-29T03:50:02.506Z,9.40
2023-05-29T03:52:33.340Z,9.49
2023-05-29T03:55:00.412Z,9.53
2023-05-29T03:57:27.778Z,9.64
2023-05-29T03:59:54.662Z,9.55
2023-05-29T04:02:22.739Z,9.61
2023-05-29T04:04:57.679Z,9.66
2023-05-29T04:07:24.242Z,9.71
2023-05-29T04:09:51.238Z,9.76
2023-05-29T04:12:18.050Z,9.80
2023-05-29T04:14:44.843Z,9.86
2023-05-29T04:17:13.664Z,9.89
2023-05-29T04:19:40.659Z,10.00
2023-05-29T04:22:07.698Z,10.13
2023-05-29T04:24:36.764Z,10.18
2023-05-29T04:27:03.772Z,10.22
2023-05-29T04:29:31.633Z,10.37
2023-05-29T04:31:59.009Z,10.46
2023-05-29T04:34:26.542Z,10.60
2023-05-29T04:36:53.397Z,10.68
2023-05-29T04:39:23.261Z,10.69
2023-05-29T04:41:50.875Z,10.88
2023-05-29T04:44:20.437Z,10.96
2023-05-29T04:46:53.270Z,11.02
2023-05-29T04:49:21.560Z,11.08
2023-05-29T04:51:48.460Z,11.26
2023-05-29T04:54:15.623Z,11.36
2023-05-29T04:56:42.401Z,11.44
2023-05-29T04:59:11.556Z,11.50
2023-05-29T05:01:38.437Z,11.68
2023-05-29T05:04:05.707Z,11.84
2023-05-29T05:06:32.841Z,11.90
2023-05-29T05:08:59.584Z,12.05
2023-05-29T05:11:27.171Z,12.18
2023-05-29T05:13:54.441Z,12.23
2023-05-29T05:16:21.922Z,12.27
2023-05-29T05:18:48.851Z,12.45
2023-05-29T05:21:16.060Z,12.54
2023-05-29T05:23:56.603Z,12.61
2023-05-29T05:26:27.916Z,12.69
2023-05-29T05:28:55.715Z,12.77
2023-05-29T05:31:24.503Z,12.84
2023-05-29T05:33:51.587Z,12.90
2023-05-29T05:36:18.884Z,12.90
2023-05-29T05:38:45.728Z,13.07
2023-05-29T05:41:12.713Z,13.16
2023-05-29T05:43:41.511Z,13.21
2023-05-29T05:46:14.950Z,13.34
2023-05-29T05:48:42.455Z,13.37
2023-05-29T05:51:10.282Z,13.37
2023-05-29T05:53:38.147Z,13.54
2023-05-29T05:56:05.316Z,13.61
2023-05-29T05:58:32.456Z,13.65
2023-05-29T06:00:59.459Z,13.79
2023-05-29T06:05:58.434Z,14.09
2023-05-29T06:08:25.532Z,14.13
2023-05-29T06:10:53.903Z,14.23
2023-05-29T06:13:20.945Z,14.37
2023-05-29T06:15:57.061Z,14.72
2023-05-29T06:18:24.354Z,15.04
2023-05-29T06:20:51.540Z,15.08
2023-05-29T06:23:18.675Z,15.03
2023-05-29T06:25:45.600Z,15.10
2023-05-29T06:28:12.351Z,15.39
2023-05-29T06:30:40.684Z,15.77
2023-05-29T06:33:08.568Z,15.93
2023-05-29T06:35:37.966Z,15.99
2023-05-29T06:38:04.832Z,16.03
2023-05-29T06:40:31.703Z,15.88
2023-05-29T06:43:01.790Z,15.82
2023-05-29T06:45:46.818Z,15.64
2023-05-29T06:48:13.614Z,15.50
2023-05-29T06:50:41.394Z,15.44
2023-05-29T06:53:31.460Z,15.42
2023-05-29T06:55:59.981Z,15.43
2023-05-29T06:58:27.212Z,15.44
2023-05-29T07:00:53.989Z,15.47
2023-05-29T07:03:33.894Z,15.53
2023-05-29T07:06:02.886Z,15.60
2023-05-29T07:08:32.885Z,15.73
2023-05-29T07:10:59.720Z,15.75
2023-05-29T07:13:28.123Z,15.83
2023-05-29T07:15:55.318Z,16.00
2023-05-29T07:18:29.341Z,16.00
2023-05-29T07:21:01.709Z,16.09
2023-05-29T07:23:29.851Z,16.11
2023-05-29T07:25:57.331Z,16.15
2023-05-29T07:28:25.812Z,16.24
2023-05-29T07:30:53.319Z,16.33
2023-05-29T07:33:20.383Z,16.23
2023-05-29T07:35:47.263Z,16.31
2023-05-29T07:38:14.550Z,16.47
2023-05-29T07:40:42.793Z,16.59
2023-05-29T07:43:09.790Z,16.55
2023-05-29T07:45:48.517Z,16.61
2023-05-29T07:48:15.315Z,16.69
2023-05-29T07:50:43.154Z,16.80
2023-05-29T07:53:10.049Z,16.87
2023-05-29T07:55:39.271Z,17.04
2023-05-29T07:58:06.020Z,17.16
2023-05-29T08:00:32.718Z,17.12
2023-05-29T08:03:00.725Z,17.17
2023-05-29T08:05:27.517Z,17.25
2023-05-29T08:07:54.391Z,17.29
2023-05-29T08:10:21.173Z,17.40
2023-05-29T08:12:51.628Z,17.41
2023-05-29T08:15:25.197Z,17.55
2023-05-29T08:17:51.996Z,17.62
2023-05-29T08:20:18.696Z,17.59
2023-05-29T08:22:46.077Z,17.60
2023-05-29T08:25:13.396Z,17.69
2023-05-29T08:27:40.090Z,17.73
2023-05-29T08:30:07.435Z,17.77
2023-05-29T08:32:34.235Z,17.90
2023-05-29T08:35:00.990Z,17.95
2023-05-29T08:37:27.967Z,17.99
2023-05-29T08:39:56.073Z,18.15
2023-05-29T08:42:37.134Z,18.15
2023-05-29T08:45:07.302Z,18.27
2023-05-29T08:47:34.905Z,18.34
2023-05-29T08:50:03.135Z,18.39
2023-05-29T08:52:36.664Z,18.40
2023-05-29T08:55:03.661Z,18.61
2023-05-29T08:57:31.790Z,18.64
2023-05-29T09:00:01.249Z,18.67
2023-05-29T09:02:28.402Z,18.64
2023-05-29T09:04:55.722Z,18.76
2023-05-29T09:07:23.369Z,18.82
2023-05-29T09:09:50.423Z,18.98
2023-05-29T09:12:18.182Z,18.96
2023-05-29T09:14:46.351Z,19.05
2023-05-29T09:17:14.521Z,19.12
2023-05-29T09:19:41.816Z,19.34
2023-05-29T09:22:11.505Z,19.34
2023-05-29T09:24:39.725Z,19.47
2023-05-29T09:27:09.095Z,19.58
2023-05-29T09:29:41.173Z,19.52
2023-05-29T09:32:09.859Z,19.56
2023-05-29T09:34:36.783Z,19.68
2023-05-29T09:37:13.669Z,19.73
2023-05-29T09:39:44.491Z,19.86
2023-05-29T09:42:11.616Z,19.76
2023-05-29T09:44:38.376Z,19.83
2023-05-29T09:47:05.874Z,19.85
2023-05-29T09:49:33.310Z,19.93
2023-05-29T09:52:00.921Z,19.87
2023-05-29T09:54:31.955Z,19.79
2023-05-29T09:56:59.507Z,19.92
2023-05-29T09:59:26.408Z,19.95
2023-05-29T10:02:02.537Z,20.00
2023-05-29T10:04:36.183Z,20.12
2023-05-29T10:07:11.320Z,20.26
2023-05-29T10:09:45.140Z,20.31
2023-05-29T10:12:21.471Z,20.32
2023-05-29T10:14:51.397Z,20.45
2023-05-29T10:17:23.655Z,20.48
2023-05-29T10:19:52.005Z,20.50
2023-05-29T10:22:26.221Z,20.52
2023-05-29T10:24:54.014Z,20.62
2023-05-29T10:27:29.940Z,20.58
2023-05-29T10:30:11.262Z,20.56
2023-05-29T10:32:53.697Z,20.58
2023-05-29T10:35:37.296Z,20.62
2023-05-29T10:38:12.983Z,20.70
2023-05-29T10:40:40.128Z,20.78
2023-05-29T10:43:10.638Z,20.79
2023-05-29T10:45:37.326Z,20.91
2023-05-29T10:48:13.304Z,20.95
2023-05-29T10:50:47.944Z,20.93
2023-05-29T10:53:23.573Z,20.94
2023-05-29T10:55:52.401Z,20.94
2023-05-29T10:58:21.077Z,20.99
2023-05-29T11:00:59.226Z,21.14
2023-05-29T11:03:35.704Z,21.19
2023-05-29T11:06:09.027Z,21.26
2023-05-29T11:08:56.900Z,21.38
2023-05-29T11:11:35.517Z,21.39
2023-05-29T11:14:08.722Z,21.39
2023-05-29T11:16:35.426Z,21.31
2023-05-29T11:19:13.293Z,21.21
2023-05-29T11:21:40.043Z,21.31
2023-05-29T11:24:08.362Z,21.26
2023-05-29T11:26:38.624Z,21.34
2023-05-29T11:29:07.733Z,21.45
2023-05-29T11:31:38.248Z,21.35
2023-05-29T11:34:07.065Z,21.32
2023-05-29T11:36:34.399Z,21.43
2023-05-29T11:39:02.720Z,21.37
2023-05-29T11:41:29.588Z,21.41
2023-05-29T11:44:00.763Z,21.34
2023-05-29T11:46:29.161Z,21.33
2023-05-29T11:48:56.025Z,21.41
2023-05-29T11:51:26.768Z,21.49
2023-05-29T11:53:58.984Z,21.55
2023-05-29T11:56:27.637Z,21.56
2023-05-29T11:58:57.792Z,21.52
2023-05-29T12:01:26.352Z,21.69
2023-05-29T12:03:54.434Z,21.62
2023-05-29T12:06:35.676Z,21.67
2023-05-29T12:09:04.238Z,21.70
2023-05-29T12:11:31.246Z,21.74
2023-05-29T12:14:01.724Z,21.89
2023-05-29T12:16:35.462Z,21.81
2023-05-29T12:19:02.304Z,21.85
2023-05-29T12:21:29.242Z,21.92
2023-05-29T12:24:06.494Z,21.98
2023-05-29T12:26:40.839Z,22.12
2023-05-29T12:29:08.272Z,21.97
2023-05-29T12:31:35.718Z,21.93
2023-05-29T12:34:08.182Z,21.92
2023-05-29T12:36:35.029Z,22.02
2023-05-29T12:39:07.552Z,22.02
2023-05-29T12:41:36.054Z,22.01
2023-05-29T12:44:04.426Z,21.99
2023-05-29T12:46:41.148Z,22.01
2023-05-29T12:49:14.944Z,22.15
2023-05-29T12:51:45.678Z,22.22
2023-05-29T12:54:13.202Z,22.36
2023-05-29T12:56:43.266Z,22.43
2023-05-29T12:59:11.086Z,22.38
2023-05-29T13:01:44.825Z,22.40
2023-05-29T13:04:13.559Z,22.35
2023-05-29T13:06:41.753Z,22.34
2023-05-29T13:09:09.558Z,22.47
2023-05-29T13:11:38.251Z,22.44
2023-05-29T13:14:05.754Z,22.41
2023-05-29T13:16:32.972Z,22.38
2023-05-29T13:18:59.854Z,22.45
2023-05-29T13:21:26.622Z,22.36
2023-05-29T13:23:55.412Z,22.34
2023-05-29T13:26:23.018Z,22.35
2023-05-29T13:28:50.106Z,22.41
2023-05-29T13:31:16.855Z,22.45
2023-05-29T13:33:43.554Z,22.46
2023-05-29T13:36:10.436Z,22.44
2023-05-29T13:38:37.180Z,22.48
2023-05-29T13:41:03.973Z,22.42
2023-05-29T13:43:42.572Z,22.53
2023-05-29T13:46:36.102Z,22.44
2023-05-29T13:49:02.917Z,22.40
2023-05-29T13:51:58.436Z,22.46
2023-05-29T13:54:25.307Z,22.40
2023-05-29T13:56:52.192Z,22.36
2023-05-29T13:59:18.936Z,22.34
2023-05-29T14:01:46.530Z,22.30
2023-05-29T14:04:13.414Z,22.24
2023-05-29T14:06:44.081Z,22.14
2023-05-29T14:09:11.563Z,22.05
2023-05-29T14:11:38.484Z,22.13
2023-05-29T14:14:05.437Z,22.19
2023-05-29T14:16:34.729Z,22.21
2023-05-29T14:19:02.176Z,22.16
2023-05-29T14:21:29.036Z,22.14
2023-05-29T14:23:55.775Z,22.34
2023-05-29T14:26:22.541Z,22.30
2023-05-29T14:28:54.849Z,22.29
2023-05-29T14:31:29.174Z,22.30
2023-05-29T14:33:55.888Z,22.29
2023-05-29T14:36:22.701Z,22.37
2023-05-29T14:38:50.685Z,22.33
2023-05-29T14:41:17.249Z,22.44
2023-05-29T14:43:44.014Z,22.36
2023-05-29T14:46:11.196Z,22.32
2023-05-29T14:48:38.014Z,22.25
2023-05-29T14:51:04.890Z,22.28
2023-05-29T14:53:32.702Z,22.29
2023-05-29T14:55:59.621Z,22.23
2023-05-29T14:58:26.411Z,22.25
2023-05-29T15:00:54.100Z,22.20
2023-05-29T15:03:20.892Z,22.19
2023-05-29T15:05:47.760Z,22.31
2023-05-29T15:08:14.631Z,22.36
2023-05-29T15:10:41.322Z,22.30
2023-05-29T15:13:11.285Z,22.29
2023-05-29T15:15:47.854Z,22.32
2023-05-29T15:18:16.065Z,22.20
2023-05-29T15:20:42.755Z,22.16
2023-05-29T15:23:12.278Z,22.22
2023-05-29T15:25:41.658Z,22.35
2023-05-29T15:28:08.288Z,22.38
2023-05-29T15:30:35.011Z,22.22
2023-05-29T15:33:01.881Z,22.22
2023-05-29T15:35:28.573Z,22.34
2023-05-29T15:37:55.316Z,22.41
2023-05-29T15:40:22.043Z,22.29
2023-05-29T15:42:48.729Z,22.30
2023-05-29T15:45:15.718Z,22.23
2023-05-29T15:47:42.452Z,22.20
2023-05-29T15:50:09.575Z,22.20
2023-05-29T15:52:42.858Z,22.12
2023-05-29T15:55:20.879Z,22.09
2023-05-29T15:57:48.728Z,22.13
2023-05-29T16:00:18.686Z,22.07
2023-05-29T16:02:46.202Z,22.00
2023-05-29T16:05:13.568Z,22.17
2023-05-29T16:07:40.903Z,22.17
2023-05-29T16:10:08.024Z,22.23
2023-05-29T16:12:35.154Z,22.14
2023-05-29T16:15:03.067Z,22.10
2023-05-29T16:17:29.798Z,22.06
2023-05-29T16:19:57.427Z,21.98
2023-05-29T16:22:40.006Z,22.07
2023-05-29T16:25:09.755Z,22.00
2023-05-29T16:27:37.169Z,21.96
2023-05-29T16:30:04.851Z,21.83
2023-05-29T16:32:31.797Z,21.82
2023-05-29T16:34:58.969Z,21.72
2023-05-29T16:37:26.948Z,21.64
2023-05-29T16:39:54.024Z,21.75
2023-05-29T16:42:20.689Z,21.79
2023-05-29T16:44:53.162Z,21.82
2023-05-29T16:47:20.660Z,21.87
2023-05-29T16:49:47.539Z,21.70
2023-05-29T16:52:15.724Z,21.73
2023-05-29T16:54:43.044Z,21.80
2023-05-29T16:57:10.457Z,21.73
2023-05-29T16:59:38.171Z,21.66
2023-05-29T17:02:06.036Z,21.62
2023-05-29T17:04:37.245Z,21.65
2023-05-29T17:07:04.610Z,21.62
2023-05-29T17:09:31.777Z,21.61
2023-05-29T17:11:58.611Z,21.58
2023-05-29T17:14:25.847Z,21.46
2023-05-29T17:16:52.721Z,21.48
2023-05-29T17:19:19.954Z,21.38
2023-05-29T17:21:48.181Z,21.30
2023-05-29T17:24:16.368Z,21.24
2023-05-29T17:26:43.077Z,21.22
2023-05-29T17:29:16.780Z,21.16
2023-05-29T17:31:44.890Z,21.23
2023-05-29T17:34:12.086Z,21.20
2023-05-29T17:36:39.056Z,21.05
2023-05-29T17:39:06.028Z,21.13
2023-05-29T17:41:32.974Z,21.01
2023-05-29T17:43:59.725Z,20.98
2023-05-29T17:46:26.980Z,20.92
2023-05-29T17:48:53.895Z,20.88
2023-05-29T17:51:23.142Z,20.75
2023-05-29T17:53:50.877Z,20.79
2023-05-29T17:56:18.892Z,20.74
2023-05-29T17:58:46.890Z,20.66
2023-05-29T18:01:13.899Z,20.65
2023-05-29T18:03:41.610Z,20.56
2023-05-29T18:06:08.603Z,20.62
2023-05-29T18:08:37.034Z,20.52
2023-05-29T18:11:03.856Z,20.49
2023-05-29T18:13:30.902Z,20.38
2023-05-29T18:15:57.800Z,20.28
2023-05-29T18:18:24.952Z,20.09
2023-05-29T18:20:51.661Z,19.93
2023-05-29T18:23:18.449Z,19.92
2023-05-29T18:25:45.182Z,19.79
2023-05-29T18:28:11.863Z,19.62
2023-05-29T18:30:40.049Z,19.43
2023-05-29T18:33:08.223Z,19.38
2023-05-29T18:35:35.209Z,19.28
2023-05-29T18:38:01.911Z,19.24
2023-05-29T18:40:28.676Z,19.20
2023-05-29T18:42:55.557Z,19.08
2023-05-29T18:45:22.336Z,18.97
2023-05-29T18:47:49.121Z,18.85
2023-05-29T18:50:16.022Z,18.85
2023-05-29T18:52:42.721Z,18.74
2023-05-29T18:55:10.783Z,18.71
2023-05-29T18:57:38.144Z,18.63
2023-05-29T19:00:08.790Z,18.49
2023-05-29T19:02:39.498Z,18.36
2023-05-29T19:05:07.608Z,18.31
2023-05-29T19:07:39.420Z,18.13
2023-05-29T19:10:06.920Z,17.98
2023-05-29T19:12:33.591Z,17.83
2023-05-29T19:15:00.669Z,17.75
2023-05-29T19:17:29.912Z,17.65
2023-05-29T19:19:58.513Z,17.70
2023-05-29T19:22:25.189Z,17.65
2023-05-29T19:24:52.223Z,17.62
2023-05-29T19:27:19.904Z,17.69
2023-05-29T19:29:46.958Z,17.56
2023-05-29T19:32:18.831Z,17.48
2023-05-29T19:34:45.573Z,17.37
2023-05-29T19:37:15.489Z,17.20
2023-05-29T19:39:42.204Z,17.21
2023-05-29T19:42:09.029Z,17.13
2023-05-29T19:44:36.124Z,17.07
2023-05-29T19:47:02.958Z,17.00
2023-05-29T19:49:31.612Z,16.91
2023-05-29T19:51:59.636Z,16.85
2023-05-29T19:54:27.253Z,16.82
2023-05-29T19:56:53.995Z,16.73
2023-05-29T19:59:21.107Z,16.68
2023-05-29T20:01:47.831Z,16.56
2023-05-29T20:04:14.598Z,16.50
2023-05-29T20:06:41.606Z,16.47
2023-05-29T20:09:12.202Z,16.36
2023-05-29T20:11:39.364Z,16.25
2023-05-29T20:14:06.112Z,16.09
2023-05-29T20:16:32.865Z,16.04
2023-05-29T20:19:07.148Z,15.99
2023-05-29T20:21:34.411Z,16.00
2023-05-29T20:24:01.116Z,15.98
2023-05-29T20:26:28.291Z,15.95
2023-05-29T20:28:55.124Z,16.05
2023-05-29T20:31:28.245Z,16.07
2023-05-29T20:33:55.169Z,16.09
2023-05-29T20:36:21.855Z,16.06
2023-05-29T20:38:49.546Z,16.03
2023-05-29T20:41:17.157Z,16.04
2023-05-29T20:43:49.517Z,16.04
2023-05-29T20:46:17.274Z,15.97
2023-05-29T20:48:46.323Z,15.91
2023-05-29T20:51:13.777Z,15.77
2023-05-29T20:53:43.030Z,15.76
2023-05-29T20:56:14.040Z,15.73
2023-05-29T20:58:40.945Z,15.67
2023-05-29T21:01:08.563Z,15.73
2023-05-29T21:03:36.411Z,15.61
2023-05-29T21:06:03.589Z,15.61
2023-05-29T21:08:33.090Z,15.61
2023-05-29T21:11:00.065Z,15.51
2023-05-29T21:13:26.959Z,15.39
2023-05-29T21:15:54.991Z,15.28
2023-05-29T21:18:22.740Z,15.33
2023-05-29T21:20:50.031Z,15.23
2023-05-29T21:23:16.934Z,15.15
2023-05-29T21:25:45.108Z,15.21
2023-05-29T21:28:11.717Z,15.18
2023-05-29T21:30:38.405Z,15.05
2023-05-29T21:33:05.471Z,15.01
2023-05-29T21:35:34.659Z,14.96
2023-05-29T21:38:01.408Z,14.94
2023-05-29T21:40:28.134Z,14.92
2023-05-29T21:42:57.230Z,14.87
2023-05-29T21:45:24.129Z,14.79
2023-05-29T21:47:51.276Z,14.70
2023-05-29T21:50:18.075Z,14.73
2023-05-29T21:52:46.116Z,14.71
2023-05-29T21:55:13.581Z,14.62
2023-05-29T21:57:40.274Z,14.62
2023-05-29T22:00:11.110Z,14.58
2023-05-29T22:02:38.370Z,14.46
2023-05-29T22:05:10.200Z,14.36
2023-05-29T22:07:37.336Z,14.29
2023-05-29T22:10:04.347Z,14.23
2023-05-29T22:12:32.920Z,14.22
2023-05-29T22:15:00.323Z,14.27
2023-05-29T22:17:29.182Z,14.19
2023-05-29T22:19:56.530Z,14.05
2023-05-29T22:22:23.452Z,14.11
2023-05-29T22:24:50.206Z,14.06
2023-05-29T22:27:17.886Z,14.04
2023-05-29T22:29:44.624Z,14.00
2023-05-29T22:32:12.571Z,13.90
2023-05-29T22:34:39.325Z,13.89
2023-05-29T22:37:09.093Z,13.81
2023-05-29T22:39:37.033Z,13.70
2023-05-29T22:42:04.311Z,13.69
2023-05-29T22:44:31.806Z,13.69
2023-05-29T22:46:58.970Z,13.60
2023-05-29T22:49:25.825Z,13.61
2023-05-29T22:51:52.498Z,13.71
2023-05-29T22:54:19.164Z,13.61
2023-05-29T22:56:46.080Z,13.61
2023-05-29T22:59:16.254Z,13.49
2023-05-29T23:01:44.142Z,13.41
2023-05-29T23:04:10.912Z,13.35
2023-05-29T23:06:39.872Z,13.29
2023-05-29T23:09:08.811Z,13.23
2023-05-29T23:11:35.742Z,13.17
2023-05-29T23:14:02.508Z,13.07
2023-05-29T23:16:29.238Z,13.10
2023-05-29T23:18:56.388Z,13.09
2023-05-29T23:21:26.962Z,13.04
2023-05-29T23:23:53.967Z,12.97
2023-05-29T23:26:22.739Z,13.01
2023-05-29T23:28:49.423Z,12.88
2023-05-29T23:31:17.130Z,12.85
2023-05-29T23:33:44.055Z,12.76
2023-05-29T23:36:11.242Z,12.74
2023-05-29T23:38:37.937Z,12.75
2023-05-29T23:41:04.730Z,12.83
2023-05-29T23:43:32.333Z,12.79
2023-05-29T23:45:59.171Z,12.64
2023-05-29T23:48:25.994Z,12.61
2023-05-29T23:50:52.827Z,12.59
2023-05-29T23:53:19.834Z,12.47
2023-05-29T23:55:46.695Z,12.52
2023-05-29T23:58:13.611Z,12.49
